createdAt,value
2019-02-18T00:00:11.334Z,117.17
2019-02-18T00:02:39.010Z,130.80
2019-02-18T00:05:06.650Z,144.17
2019-02-18T00:07:34.364Z,157.20
2019-02-18T00:10:02.057Z,299.77
2019-02-18T00:12:29.722Z,185.33
2019-02-18T00:14:57.368Z,236.77
2019-02-18T00:17:25.138Z,192.80
2019-02-18T00:19:52.813Z,178.70
2019-02-18T00:22:21.758Z,180.23
2019-02-18T00:24:50.091Z,183.70
2019-02-18T00:27:18.184Z,216.17
2019-02-18T00:29:46.287Z,203.30
2019-02-18T00:32:14.465Z,173.97
2019-02-18T00:34:42.134Z,164.03
2019-02-18T00:37:09.804Z,158.23
2019-02-18T00:39:37.810Z,157.60
2019-02-18T00:42:05.896Z,155.03
2019-02-18T00:44:33.658Z,142.10
2019-02-18T00:47:01.648Z,138.23
2019-02-18T00:49:29.335Z,156.63
2019-02-18T00:51:57.077Z,159.67
2019-02-18T00:54:24.756Z,152.43
2019-02-18T00:56:52.431Z,170.20
2019-02-18T00:59:20.105Z,183.70
2019-02-18T01:01:47.793Z,201.60
2019-02-18T01:04:15.895Z,179.03
2019-02-18T01:06:43.942Z,181.70
2019-02-18T01:09:12.082Z,182.83
2019-02-18T01:11:39.762Z,187.77
2019-02-18T01:14:07.722Z,193.87
2019-02-18T01:16:35.957Z,174.43
2019-02-18T01:19:04.064Z,184.57
2019-02-18T01:21:32.102Z,205.00
2019-02-18T01:24:00.313Z,208.83
2019-02-18T01:26:28.426Z,267.67
2019-02-18T01:28:56.101Z,252.17
2019-02-18T01:31:24.234Z,233.67
2019-02-18T01:33:51.946Z,238.17
2019-02-18T01:36:19.614Z,237.70
2019-02-18T01:38:47.327Z,211.93
2019-02-18T01:41:15.063Z,205.53
2019-02-18T01:43:43.023Z,201.83
2019-02-18T01:46:11.023Z,207.67
2019-02-18T01:48:39.138Z,221.93
2019-02-18T01:51:07.340Z,261.43
2019-02-18T01:53:35.386Z,242.33
2019-02-18T01:56:03.795Z,222.27
2019-02-18T01:58:31.955Z,204.50
2019-02-18T02:00:59.587Z,202.13
2019-02-18T02:03:27.388Z,213.40
2019-02-18T02:05:55.019Z,196.80
2019-02-18T02:08:23.195Z,200.33
2019-02-18T02:10:50.948Z,221.83
2019-02-18T02:13:31.542Z,198.43
2019-02-18T02:16:00.054Z,215.33
2019-02-18T02:18:27.734Z,206.03
2019-02-18T02:20:55.413Z,208.27
2019-02-18T02:23:23.109Z,184.20
2019-02-18T02:25:50.823Z,207.07
2019-02-18T02:28:18.896Z,201.90
2019-02-18T02:30:46.597Z,217.17
2019-02-18T02:33:14.343Z,196.73
2019-02-18T02:35:42.462Z,188.90
2019-02-18T02:38:10.234Z,198.10
2019-02-18T02:40:37.907Z,210.03
2019-02-18T02:43:05.955Z,202.77
2019-02-18T02:45:33.640Z,198.63
2019-02-18T02:48:01.344Z,199.03
2019-02-18T02:50:29.329Z,198.50
2019-02-18T02:52:57.072Z,201.30
2019-02-18T02:55:24.811Z,198.97
2019-02-18T02:57:52.511Z,202.50
2019-02-18T03:00:20.226Z,204.17
2019-02-18T03:02:47.906Z,205.00
2019-02-18T03:05:15.656Z,194.10
2019-02-18T03:07:43.301Z,199.40
2019-02-18T03:10:11.992Z,188.83
2019-02-18T03:12:39.738Z,197.47
2019-02-18T03:15:08.854Z,196.90
2019-02-18T03:17:36.901Z,189.93
2019-02-18T03:20:06.912Z,194.13
2019-02-18T03:22:34.577Z,187.27
2019-02-18T03:25:06.814Z,182.37
2019-02-18T03:27:34.534Z,194.30
2019-02-18T03:30:20.806Z,200.43
2019-02-18T03:32:48.500Z,186.10
2019-02-18T03:35:16.510Z,194.63
2019-02-18T03:37:44.281Z,184.47
2019-02-18T03:40:12.368Z,181.93
2019-02-18T03:42:40.075Z,196.77
2019-02-18T03:45:08.075Z,194.07
2019-02-18T03:47:36.248Z,187.60
2019-02-18T03:50:04.074Z,189.03
2019-02-18T03:52:31.786Z,185.47
2019-02-18T03:54:59.659Z,187.43
2019-02-18T03:57:27.755Z,187.00
2019-02-18T03:59:55.440Z,188.80
2019-02-18T04:02:23.554Z,189.13
2019-02-18T04:04:51.622Z,191.53
2019-02-18T04:07:19.401Z,175.03
2019-02-18T04:09:47.413Z,188.50
2019-02-18T04:12:15.161Z,179.57
2019-02-18T04:14:43.161Z,182.60
2019-02-18T04:17:11.260Z,183.83
2019-02-18T04:19:38.944Z,185.23
2019-02-18T04:22:07.033Z,172.27
2019-02-18T04:24:35.200Z,168.27
2019-02-18T04:27:02.864Z,166.60
2019-02-18T04:29:30.627Z,168.27
2019-02-18T04:31:58.353Z,176.50
2019-02-18T04:34:26.098Z,178.70
2019-02-18T04:36:54.199Z,174.30
2019-02-18T04:39:21.903Z,176.97
2019-02-18T04:41:49.573Z,182.33
2019-02-18T04:44:17.696Z,182.83
2019-02-18T04:46:45.813Z,174.73
2019-02-18T04:49:13.532Z,181.13
2019-02-18T04:51:41.206Z,182.53
2019-02-18T04:54:08.923Z,173.40
2019-02-18T04:56:37.043Z,169.77
2019-02-18T04:59:05.139Z,178.87
2019-02-18T05:01:33.163Z,186.07
2019-02-18T05:04:00.903Z,177.30
2019-02-18T05:06:28.615Z,184.43
2019-02-18T05:09:05.103Z,174.63
2019-02-18T05:11:26.348Z,184.77
2019-02-18T05:13:54.025Z,198.20
2019-02-18T05:16:22.142Z,194.90
2019-02-18T05:18:49.817Z,183.40
2019-02-18T05:21:17.547Z,179.20
2019-02-18T05:23:45.741Z,188.13
2019-02-18T05:26:13.745Z,174.43
2019-02-18T05:28:41.527Z,190.73
2019-02-18T05:31:09.610Z,184.50
2019-02-18T05:33:37.387Z,185.60
2019-02-18T05:36:05.626Z,161.82
2019-02-18T05:38:33.321Z,165.23
2019-02-18T05:41:01.394Z,168.03
2019-02-18T05:43:29.156Z,167.87
2019-02-18T05:45:56.827Z,183.13
2019-02-18T05:48:24.991Z,176.53
2019-02-18T05:50:52.635Z,180.13
2019-02-18T05:53:20.883Z,191.63
2019-02-18T05:55:48.578Z,202.47
2019-02-18T05:58:16.374Z,199.40
2019-02-18T06:00:44.405Z,183.33
2019-02-18T06:03:12.508Z,177.20
2019-02-18T06:05:40.262Z,160.67
2019-02-18T06:08:07.980Z,169.13
2019-02-18T06:10:35.624Z,167.73
2019-02-18T06:13:03.278Z,162.43
2019-02-18T06:15:31.009Z,143.50
2019-02-18T06:17:58.728Z,170.20
2019-02-18T06:20:26.390Z,171.07
2019-02-18T06:22:54.127Z,158.33
2019-02-18T06:25:21.843Z,160.90
2019-02-18T06:27:51.542Z,147.10
2019-02-18T06:30:19.327Z,145.20
2019-02-18T06:32:47.049Z,152.73
2019-02-18T06:35:15.021Z,151.30
2019-02-18T06:37:42.792Z,148.30
2019-02-18T06:40:10.935Z,168.40
2019-02-18T06:42:38.929Z,181.80
2019-02-18T06:45:26.279Z,193.07
2019-02-18T06:47:53.920Z,177.30
2019-02-18T06:50:22.008Z,202.83
2019-02-18T06:52:50.183Z,185.50
2019-02-18T06:55:18.269Z,230.63
2019-02-18T06:58:03.771Z,224.80
2019-02-18T07:00:45.747Z,194.07
2019-02-18T07:03:18.673Z,169.77
2019-02-18T07:06:00.124Z,155.93
2019-02-18T07:08:44.854Z,138.47
2019-02-18T07:11:14.092Z,147.00
2019-02-18T07:13:42.239Z,137.23
2019-02-18T07:16:09.910Z,138.93
2019-02-18T07:18:37.596Z,130.43
2019-02-18T07:21:05.855Z,133.50
2019-02-18T07:23:33.558Z,136.20
2019-02-18T07:26:01.508Z,129.17
2019-02-18T07:28:29.721Z,136.10
2019-02-18T07:30:57.756Z,128.67
2019-02-18T07:33:25.404Z,141.40
2019-02-18T07:35:53.503Z,141.33
2019-02-18T07:38:21.222Z,131.60
2019-02-18T07:40:48.894Z,131.27
2019-02-18T07:43:16.600Z,136.10
2019-02-18T07:45:44.290Z,132.57
2019-02-18T07:48:12.022Z,120.73
2019-02-18T07:50:40.093Z,110.97
2019-02-18T07:53:07.736Z,111.27
2019-02-18T07:55:35.477Z,106.07
2019-02-18T07:58:03.132Z,107.67
2019-02-18T08:00:30.845Z,102.73
2019-02-18T08:02:58.514Z,104.07
2019-02-18T08:05:26.296Z,101.60
2019-02-18T08:07:54.508Z,93.37
2019-02-18T08:10:22.301Z,98.63
2019-02-18T08:12:49.981Z,95.60
2019-02-18T08:15:17.694Z,96.37
2019-02-18T08:17:45.633Z,98.57
2019-02-18T08:20:13.337Z,96.13
2019-02-18T08:22:41.069Z,100.57
2019-02-18T08:25:12.517Z,89.57
2019-02-18T08:27:40.331Z,96.30
2019-02-18T08:30:09.528Z,97.63
2019-02-18T08:32:37.612Z,91.30
2019-02-18T08:35:06.207Z,103.60
2019-02-18T08:37:33.924Z,96.80
2019-02-18T08:40:02.042Z,105.23
2019-02-18T08:42:30.208Z,84.00
2019-02-18T08:44:58.286Z,85.37
2019-02-18T08:47:26.259Z,99.97
2019-02-18T08:49:54.289Z,74.20
2019-02-18T08:52:21.998Z,72.10
2019-02-18T08:54:56.357Z,80.87
2019-02-18T08:57:18.989Z,83.37
2019-02-18T08:59:47.081Z,87.10
2019-02-18T09:02:15.123Z,77.03
2019-02-18T09:04:43.197Z,81.20
2019-02-18T09:07:11.373Z,75.67
2019-02-18T09:09:39.033Z,72.90
2019-02-18T09:12:06.775Z,74.43
2019-02-18T09:14:34.814Z,68.60
2019-02-18T09:17:02.641Z,75.60
2019-02-18T09:19:30.320Z,80.87
2019-02-18T09:21:59.524Z,82.23
2019-02-18T09:24:28.953Z,93.57
2019-02-18T09:26:56.602Z,74.03
2019-02-18T09:29:24.950Z,80.33
2019-02-18T09:31:52.702Z,77.77
2019-02-18T09:34:20.781Z,77.20
2019-02-18T09:36:48.832Z,77.13
2019-02-18T09:39:17.982Z,71.90
2019-02-18T09:41:46.070Z,76.43
2019-02-18T09:44:15.518Z,67.17
2019-02-18T09:46:45.267Z,71.53
2019-02-18T09:49:12.930Z,73.77
2019-02-18T09:51:41.077Z,71.23
2019-02-18T09:54:09.136Z,73.07
2019-02-18T09:56:37.057Z,72.00
2019-02-18T09:59:05.198Z,71.43
2019-02-18T10:01:32.884Z,64.87
2019-02-18T10:04:00.558Z,72.17
2019-02-18T10:06:28.799Z,66.23
2019-02-18T10:08:56.846Z,73.57
2019-02-18T10:11:24.918Z,72.37
2019-02-18T10:13:52.924Z,58.17
2019-02-18T10:16:20.953Z,69.43
2019-02-18T10:18:49.100Z,62.77
2019-02-18T10:21:16.790Z,66.90
2019-02-18T10:23:44.739Z,66.87
2019-02-18T10:26:12.409Z,77.07
2019-02-18T10:28:40.490Z,58.03
2019-02-18T10:31:08.517Z,69.57
2019-02-18T10:33:36.199Z,68.10
2019-02-18T10:36:04.164Z,68.97
2019-02-18T10:38:31.913Z,58.33
2019-02-18T10:41:06.402Z,64.40
2019-02-18T10:43:32.463Z,59.90
2019-02-18T10:45:58.926Z,65.20
2019-02-18T10:48:27.261Z,72.83
2019-02-18T10:50:55.271Z,67.93
2019-02-18T10:53:22.941Z,61.30
2019-02-18T10:55:50.869Z,65.93
2019-02-18T10:58:18.553Z,61.80
2019-02-18T11:00:46.265Z,58.33
2019-02-18T11:03:14.359Z,57.77
2019-02-18T11:05:42.021Z,59.47
2019-02-18T11:08:09.664Z,71.20
2019-02-18T11:10:37.399Z,65.03
2019-02-18T11:13:05.108Z,64.27
2019-02-18T11:15:33.334Z,63.40
2019-02-18T11:18:01.453Z,58.97
2019-02-18T11:20:29.198Z,56.53
2019-02-18T11:22:57.266Z,51.70
2019-02-18T11:25:24.965Z,56.37
2019-02-18T11:27:52.650Z,52.93
2019-02-18T11:30:20.560Z,57.53
2019-02-18T11:32:48.638Z,55.27
2019-02-18T11:35:16.340Z,58.90
2019-02-18T11:37:44.042Z,50.53
2019-02-18T11:40:13.545Z,49.60
2019-02-18T11:42:41.212Z,46.83
2019-02-18T11:45:10.842Z,38.67
2019-02-18T11:47:38.983Z,54.10
2019-02-18T11:50:07.959Z,51.27
2019-02-18T11:52:35.630Z,55.30
2019-02-18T11:55:04.066Z,50.80
2019-02-18T11:57:31.819Z,48.33
2019-02-18T12:00:00.157Z,54.07
2019-02-18T12:02:27.833Z,48.67
2019-02-18T12:04:55.898Z,54.77
2019-02-18T12:07:23.943Z,45.37
2019-02-18T12:09:51.610Z,47.70
2019-02-18T12:12:19.624Z,52.27
2019-02-18T12:14:47.297Z,47.07
2019-02-18T12:17:20.504Z,52.03
2019-02-18T12:19:45.464Z,48.27
2019-02-18T12:22:13.144Z,47.70
2019-02-18T12:24:41.260Z,50.03
2019-02-18T12:27:09.658Z,43.40
2019-02-18T12:29:37.688Z,44.73
2019-02-18T12:32:05.428Z,41.40
2019-02-18T12:34:33.539Z,41.80
2019-02-18T12:37:01.613Z,41.03
2019-02-18T12:39:29.396Z,46.63
2019-02-18T12:41:57.466Z,41.13
2019-02-18T12:44:27.422Z,38.73
2019-02-18T12:46:54.585Z,44.30
2019-02-18T12:49:22.262Z,43.83
2019-02-18T12:51:50.395Z,44.97
2019-02-18T12:54:18.744Z,48.63
2019-02-18T12:56:46.762Z,33.30
2019-02-18T12:59:14.493Z,42.70
2019-02-18T13:01:42.133Z,44.60
2019-02-18T13:04:09.792Z,45.37
2019-02-18T13:06:37.855Z,41.67
2019-02-18T13:09:06.066Z,33.83
2019-02-18T13:11:34.105Z,22.67
2019-02-18T13:14:02.160Z,16.80
2019-02-18T13:16:30.122Z,19.67
2019-02-18T13:18:58.358Z,15.93
2019-02-18T13:21:26.469Z,23.10
2019-02-18T13:23:54.171Z,26.27
2019-02-18T13:26:21.860Z,23.03
2019-02-18T13:28:49.912Z,22.13
2019-02-18T13:31:17.598Z,24.37
2019-02-18T13:33:45.858Z,22.70
2019-02-18T13:36:14.586Z,23.20
2019-02-18T13:38:42.655Z,23.43
2019-02-18T13:41:10.677Z,29.97
2019-02-18T13:43:38.904Z,23.80
2019-02-18T13:46:06.593Z,21.47
2019-02-18T13:48:34.375Z,21.17
2019-02-18T13:51:02.386Z,21.73
2019-02-18T13:53:30.058Z,29.73
2019-02-18T13:55:58.227Z,26.07
2019-02-18T13:58:26.276Z,28.73
2019-02-18T14:00:53.993Z,26.57
2019-02-18T14:03:22.133Z,27.97
2019-02-18T14:05:50.259Z,26.37
2019-02-18T14:08:17.950Z,26.47
2019-02-18T14:10:46.053Z,32.80
2019-02-18T14:13:14.102Z,29.67
2019-02-18T14:15:41.774Z,22.70
2019-02-18T14:18:09.476Z,25.20
2019-02-18T14:20:37.963Z,29.47
2019-02-18T14:23:05.663Z,30.80
2019-02-18T14:25:33.582Z,29.93
2019-02-18T14:28:01.696Z,33.33
2019-02-18T14:30:29.377Z,71.80
2019-02-18T14:32:57.120Z,38.17
2019-02-18T14:35:26.363Z,113.17
2019-02-18T14:40:18.810Z,48.37
2019-02-18T14:42:46.693Z,122.77
2019-02-18T14:45:14.975Z,188.60
2019-02-18T14:47:42.830Z,164.67
2019-02-18T14:50:10.601Z,63.20
2019-02-18T14:52:38.362Z,40.93
2019-02-18T14:55:07.339Z,42.77
2019-02-18T14:57:35.239Z,116.03
2019-02-18T15:00:03.208Z,63.40
2019-02-18T15:02:30.966Z,64.57
2019-02-18T15:04:58.721Z,38.03
2019-02-18T15:07:26.501Z,484.60
2019-02-18T15:09:54.271Z,210.03
2019-02-18T15:12:22.334Z,58.87
2019-02-18T15:14:50.093Z,38.50
2019-02-18T15:17:17.962Z,28.83
2019-02-18T15:19:45.842Z,25.97
2019-02-18T15:22:13.703Z,25.93
2019-02-18T15:24:41.462Z,32.27
2019-02-18T15:27:09.396Z,33.67
2019-02-18T15:29:37.084Z,34.07
2019-02-18T15:32:05.586Z,36.10
2019-02-18T15:34:33.330Z,38.63
2019-02-18T15:37:01.100Z,35.57
2019-02-18T15:39:28.980Z,42.07
2019-02-18T15:41:56.854Z,37.00
2019-02-18T15:44:24.927Z,35.73
2019-02-18T15:46:52.791Z,35.97
2019-02-18T15:49:20.556Z,35.13
2019-02-18T15:51:48.283Z,35.97
2019-02-18T15:54:16.309Z,34.17
2019-02-18T15:56:44.061Z,35.07
2019-02-18T15:59:11.838Z,27.97
2019-02-18T16:01:40.112Z,28.63
2019-02-18T16:04:07.977Z,33.10
2019-02-18T16:06:35.732Z,25.83
2019-02-18T16:09:04.633Z,35.13
2019-02-18T16:11:32.502Z,38.40
2019-02-18T16:14:00.275Z,37.73
2019-02-18T16:16:27.971Z,35.10
2019-02-18T16:18:56.124Z,36.30
2019-02-18T16:21:23.750Z,42.60
2019-02-18T16:23:51.537Z,51.60
2019-02-18T16:26:19.411Z,58.20
2019-02-18T16:28:47.161Z,69.07
2019-02-18T16:31:14.931Z,66.63
2019-02-18T16:33:42.653Z,81.97
2019-02-18T16:36:10.566Z,61.50
2019-02-18T16:38:38.332Z,61.50
2019-02-18T16:41:06.109Z,76.93
2019-02-18T16:43:34.260Z,76.60
2019-02-18T16:46:02.038Z,76.83
2019-02-18T16:48:29.997Z,64.17
2019-02-18T16:50:58.195Z,65.27
2019-02-18T16:53:25.966Z,69.33
2019-02-18T16:55:53.628Z,89.47
2019-02-18T16:58:21.593Z,121.57
2019-02-18T17:00:57.222Z,119.53
2019-02-18T17:03:19.062Z,159.23
2019-02-18T17:05:47.039Z,263.30
2019-02-18T17:08:15.115Z,279.50
2019-02-18T17:10:42.986Z,204.60
2019-02-18T17:13:10.737Z,188.70
2019-02-18T17:15:38.616Z,146.03
2019-02-18T17:18:06.389Z,135.67
2019-02-18T17:20:34.250Z,150.00
2019-02-18T17:23:02.013Z,152.13
2019-02-18T17:25:30.088Z,179.33
2019-02-18T17:27:57.845Z,132.67
2019-02-18T17:30:25.718Z,149.60
2019-02-18T17:32:53.468Z,71.07
2019-02-18T17:35:21.356Z,151.30
2019-02-18T17:37:49.104Z,109.87
2019-02-18T17:40:16.894Z,95.77
2019-02-18T17:42:45.025Z,72.33
2019-02-18T17:45:16.599Z,79.50
2019-02-18T17:47:44.384Z,75.50
2019-02-18T17:50:13.374Z,75.50
2019-02-18T17:52:41.149Z,78.17
2019-02-18T17:55:10.309Z,96.70
2019-02-18T17:57:38.401Z,88.03
2019-02-18T18:00:07.719Z,74.43
2019-02-18T18:02:35.467Z,76.33
2019-02-18T18:05:03.248Z,78.33
2019-02-18T18:07:30.883Z,80.57
2019-02-18T18:09:58.685Z,88.10
2019-02-18T18:12:26.545Z,87.67
2019-02-18T18:14:54.521Z,78.60
2019-02-18T18:17:22.394Z,77.00
2019-02-18T18:19:50.078Z,77.00
2019-02-18T18:22:17.703Z,76.47
2019-02-18T18:24:45.590Z,80.47
2019-02-18T18:27:13.353Z,81.53
2019-02-18T18:29:41.121Z,83.70
2019-02-18T18:32:09.188Z,73.10
2019-02-18T18:34:36.936Z,70.23
2019-02-18T18:37:04.827Z,83.87
2019-02-18T18:39:32.481Z,79.63
2019-02-18T18:42:00.346Z,90.50
2019-02-18T18:44:28.117Z,81.50
2019-02-18T18:46:55.984Z,82.87
2019-02-18T18:49:23.763Z,86.67
2019-02-18T18:51:51.520Z,88.17
2019-02-18T18:54:19.274Z,84.30
2019-02-18T18:56:47.156Z,89.60
2019-02-18T18:59:15.018Z,90.27
2019-02-18T19:01:42.871Z,98.77
2019-02-18T19:04:10.946Z,94.00
2019-02-18T19:06:39.031Z,103.03
2019-02-18T19:09:06.784Z,99.33
2019-02-18T19:11:34.671Z,118.97
2019-02-18T19:14:02.428Z,95.73
2019-02-18T19:16:30.207Z,89.43
2019-02-18T19:18:57.837Z,87.13
2019-02-18T19:21:25.483Z,85.83
2019-02-18T19:23:53.394Z,88.17
2019-02-18T19:26:21.262Z,84.73
2019-02-18T19:28:48.994Z,90.33
2019-02-18T19:31:16.903Z,90.53
2019-02-18T19:33:44.674Z,82.40
2019-02-18T19:36:12.843Z,91.93
2019-02-18T19:38:40.603Z,87.03
2019-02-18T19:41:08.356Z,84.33
2019-02-18T19:43:36.151Z,84.73
2019-02-18T19:46:03.895Z,75.47
2019-02-18T19:48:31.686Z,87.47
2019-02-18T19:50:59.445Z,93.10
2019-02-18T19:53:27.286Z,83.97
2019-02-18T19:55:55.175Z,116.97
2019-02-18T19:58:22.863Z,113.57
2019-02-18T20:00:50.707Z,104.37
2019-02-18T20:03:18.575Z,100.47
2019-02-18T20:05:46.247Z,96.03
2019-02-18T20:08:14.601Z,100.77
2019-02-18T20:10:42.378Z,91.00
2019-02-18T20:13:10.028Z,83.53
2019-02-18T20:15:37.795Z,88.90
2019-02-18T20:18:05.683Z,101.50
2019-02-18T20:20:33.341Z,135.43
2019-02-18T20:23:01.107Z,132.70
2019-02-18T20:25:29.075Z,147.10
2019-02-18T20:27:56.941Z,149.77
2019-02-18T20:30:33.708Z,118.70
2019-02-18T20:33:01.475Z,136.83
2019-02-18T20:35:29.152Z,133.23
2019-02-18T20:37:56.918Z,88.10
2019-02-18T20:40:24.771Z,77.90
2019-02-18T20:42:52.566Z,121.03
2019-02-18T20:45:20.421Z,235.40
2019-02-18T20:47:48.187Z,198.00
2019-02-18T20:50:15.832Z,95.37
2019-02-18T20:52:43.724Z,78.20
2019-02-18T20:55:12.514Z,85.47
2019-02-18T20:57:40.188Z,76.80
2019-02-18T21:00:11.028Z,81.37
2019-02-18T21:02:38.685Z,69.23
2019-02-18T21:05:06.644Z,63.07
2019-02-18T21:07:34.306Z,60.00
2019-02-18T21:10:02.181Z,55.33
2019-02-18T21:12:30.352Z,56.67
2019-02-18T21:14:58.220Z,59.10
2019-02-18T21:17:25.980Z,54.57
2019-02-18T21:19:53.962Z,60.50
2019-02-18T21:22:21.725Z,56.03
2019-02-18T21:24:49.359Z,62.80
2019-02-18T21:27:17.259Z,64.40
2019-02-18T21:29:45.127Z,57.50
2019-02-18T21:32:12.897Z,54.43
2019-02-18T21:34:40.654Z,63.40
2019-02-18T21:37:08.367Z,57.83
2019-02-18T21:39:36.081Z,47.83
2019-02-18T21:42:03.857Z,46.60
2019-02-18T21:44:31.723Z,45.70
2019-02-18T21:46:59.485Z,52.63
2019-02-18T21:49:27.261Z,53.60
2019-02-18T21:51:55.119Z,52.90
2019-02-18T21:54:23.097Z,59.83
2019-02-18T21:56:50.842Z,43.10
2019-02-18T21:59:18.518Z,61.07
2019-02-18T22:01:46.803Z,48.07
2019-02-18T22:04:14.669Z,65.73
2019-02-18T22:06:42.646Z,51.83
2019-02-18T22:09:10.396Z,48.47
2019-02-18T22:11:38.069Z,51.63
2019-02-18T22:14:05.847Z,46.37
2019-02-18T22:16:33.560Z,40.57
2019-02-18T22:19:01.777Z,47.23
2019-02-18T22:21:29.469Z,40.73
2019-02-18T22:23:57.207Z,44.63
2019-02-18T22:26:25.074Z,47.07
2019-02-18T22:28:52.943Z,46.53
2019-02-18T22:31:20.606Z,47.07
2019-02-18T22:33:48.376Z,44.90
2019-02-18T22:36:16.237Z,47.10
2019-02-18T22:38:44.192Z,52.17
2019-02-18T22:41:11.978Z,45.03
2019-02-18T22:43:39.718Z,46.13
2019-02-18T22:46:07.518Z,54.30
2019-02-18T22:48:35.298Z,45.13
2019-02-18T22:51:03.036Z,51.40
2019-02-18T22:53:30.801Z,49.93
2019-02-18T22:55:58.983Z,47.90
2019-02-18T22:58:26.851Z,45.03
2019-02-18T23:00:56.197Z,42.33
2019-02-18T23:03:23.872Z,46.07
2019-02-18T23:05:51.786Z,48.23
2019-02-18T23:08:19.533Z,49.87
2019-02-18T23:10:47.317Z,52.23
2019-02-18T23:13:15.499Z,47.63
2019-02-18T23:15:43.256Z,46.40
2019-02-18T23:18:11.061Z,44.87
2019-02-18T23:20:38.773Z,51.23
2019-02-18T23:23:06.484Z,47.73
2019-02-18T23:25:34.318Z,47.00
2019-02-18T23:28:01.980Z,47.67
2019-02-18T23:30:29.656Z,47.33
2019-02-18T23:32:57.615Z,49.50
2019-02-18T23:35:25.587Z,49.70
2019-02-18T23:37:53.461Z,44.07
2019-02-18T23:40:21.329Z,45.70
2019-02-18T23:42:48.989Z,53.63
2019-02-18T23:45:16.758Z,51.07
2019-02-18T23:47:44.621Z,50.03
2019-02-18T23:50:12.615Z,51.40
2019-02-18T23:52:40.461Z,53.87
2019-02-18T23:55:08.194Z,51.73
2019-02-18T23:57:35.892Z,53.77
